Terminal Aerodrome Forecast
Issued by NWS Cleveland, OH

Home | Current Version | Previous Version | Text Only | Print | Product List | Glossary Off
Versions: 1 2 3 4 5 6 7 8 9 10 11 12 13 14 15 16 17 18 19 20 21 22 23 24 25 26 27 28 29 30 31 32 33 34

000
FTUS41 KCLE 191700
TAFCLE
TAF
KCLE 191740Z 1918/2024 VRB05KT P6SM SCT035
     FM191900 20006KT P6SM SCT035
      TEMPO 1919/1922 BKN035
     FM200000 18004KT P6SM VCSH SCT035 BKN120
      TEMPO 2000/2004 4SM TSRA BR BKN035CB
     FM200400 18004KT 6SM BR VCSH SCT025 BKN035
     FM200800 18004KT 5SM BR SCT025 BKN080
      TEMPO 2009/2013 4SM BR SCT025 BKN080
     FM201400 25006KT P6SM SCT035 BKN120
     FM201800 25009KT P6SM BKN045=

USA.gov is the U.S. government's official web portal to all federal, state and local government web resources and services.